Time;durP1;ratioP1;P1;durP2;ratioP2;P2;SDS_P1;SDS_P2;PMS_P1;PMS_P2;Temp;Humidity;BMP_temperature;BMP_pressure;BME280_temperature;BME280_humidity;BME280_pressure;Samples;Min_cycle;Max_cycle;Signal;HPM_P1;HPM_P2
2022/11/02 00:01:21;;;;;;;26.13;15.90;;;;;;;11.72;100.00;100816.41;3384142;85;99098;-91
2022/11/02 00:06:21;;;;;;;18.60;11.63;;;;;;;11.49;100.00;100812.12;3354721;85;99403;-92
2022/11/02 00:11:22;;;;;;;20.87;14.00;;;;;;;11.49;100.00;100812.12;3393558;85;29139;-92
2022/11/02 00:16:24;;;;;;;20.17;12.63;;;;;;;11.54;100.00;100830.52;3389369;85;99406;-91
2022/11/02 00:21:26;;;;;;;18.87;13.57;;;;;;;11.46;100.00;100830.20;3391713;85;27122;-91
2022/11/02 00:26:28;;;;;;;21.00;13.60;;;;;;;11.39;100.00;100831.48;3406205;84;99445;-91
2022/11/02 00:31:28;;;;;;;18.17;12.25;;;;;;;11.31;100.00;100835.32;3459877;85;34814;-91
2022/11/02 00:36:30;;;;;;;23.45;14.73;;;;;;;11.23;100.00;100837.74;3456603;84;99400;-91
2022/11/02 00:41:31;;;;;;;22.27;14.50;;;;;;;11.18;100.00;100842.19;3462595;85;26328;-91
2022/11/02 00:46:31;;;;;;;24.67;13.85;;;;;;;11.12;100.00;100847.03;3456697;84;99681;-91
2022/11/02 00:51:32;;;;;;;21.73;14.10;;;;;;;11.03;100.00;100844.54;3463947;84;26198;-91
2022/11/02 00:56:33;;;;;;;21.00;14.03;;;;;;;10.97;100.00;100843.84;3456784;84;99348;-91
2022/11/02 01:01:34;;;;;;;26.37;15.83;;;;;;;10.89;100.00;100844.30;3462333;84;32466;-91
2022/11/02 01:06:36;;;;;;;22.65;13.32;;;;;;;10.83;100.00;100847.72;3454689;84;99048;-91
2022/11/02 01:11:39;;;;;;;22.50;13.40;;;;;;;10.75;100.00;100838.55;3463424;84;32484;-91
2022/11/02 01:16:40;;;;;;;24.23;14.23;;;;;;;10.69;100.00;100846.13;3452729;84;99451;-90
2022/11/02 01:21:41;;;;;;;23.13;14.33;;;;;;;10.61;100.00;100844.39;3463184;84;26189;-90
2022/11/02 01:26:42;;;;;;;21.97;14.17;;;;;;;10.53;100.00;100848.98;3455785;84;99607;-90
2022/11/02 01:31:43;;;;;;;21.90;13.90;;;;;;;10.49;100.00;100857.77;3462906;84;33411;-90
2022/11/02 01:36:46;;;;;;;22.43;13.17;;;;;;;10.44;100.00;100853.13;3452585;84;99443;-90
2022/11/02 01:41:52;;;;;;;20.10;12.53;;;;;;;10.36;100.00;100850.05;3462353;85;25897;-90
2022/11/02 01:47:13;;;;;;;18.52;11.50;;;;;;;10.30;100.00;100850.92;3457133;84;99442;-90
2022/11/02 01:52:22;;;;;;;18.87;9.98;;;;;;;10.26;100.00;100853.39;3466054;84;34858;-90
2022/11/02 01:57:24;;;;;;;14.95;9.50;;;;;;;10.20;100.00;100853.48;3455939;85;99171;-90
2022/11/02 02:02:27;;;;;;;19.67;11.15;;;;;;;10.14;100.00;100848.84;3461828;84;34858;-90
2022/11/02 02:07:30;;;;;;;19.27;10.25;;;;;;;10.10;100.00;100833.44;3458410;84;99017;-90
2022/11/02 02:12:34;;;;;;;16.77;9.20;;;;;;;10.07;100.00;100840.46;3463224;84;35509;-90
2022/11/02 02:17:55;;;;;;;16.67;8.90;;;;;;;10.03;100.00;100840.16;3456183;84;99000;-91
2022/11/02 02:23:16;;;;;;;14.47;7.85;;;;;;;9.99;100.00;100845.59;3465511;84;35835;-89
2022/11/02 02:28:35;;;;;;;13.45;8.13;;;;;;;9.94;100.00;100844.50;3456224;84;98571;-90
2022/11/02 02:33:50;;;;;;;12.88;7.40;;;;;;;9.91;100.00;100849.33;3458244;84;35413;-90
2022/11/02 02:39:03;;;;;;;12.35;7.53;;;;;;;9.86;100.00;100845.50;3457125;84;98622;-89
2022/11/02 02:44:09;;;;;;;12.60;7.53;;;;;;;9.80;100.00;100848.89;3464028;84;34670;-89
2022/11/02 02:49:15;;;;;;;15.15;8.20;;;;;;;9.74;100.00;100844.84;3458289;84;98784;-89
2022/11/02 02:54:20;;;;;;;14.68;7.97;;;;;;;9.69;100.00;100844.55;3464199;84;25869;-89
2022/11/02 02:59:41;;;;;;;17.33;10.20;;;;;;;9.66;100.00;100851.36;3456346;84;98734;-90
2022/11/02 03:04:42;;;;;;;14.60;7.20;;;;;;;9.61;100.00;100855.76;3464312;84;34857;-90
2022/11/02 03:09:48;;;;;;;10.83;6.90;;;;;;;9.58;100.00;100854.52;3457557;84;98479;-90
2022/11/02 03:15:18;;;;;;;;;;;;;;;9.55;100.00;100851.11;3459444;84;25871;-89
2022/11/02 03:20:33;;;;;;;11.00;6.78;;;;;;;9.50;100.00;100852.80;3424896;84;84841;-90
2022/11/02 03:26:11;;;;;;;15.98;10.08;;;;;;;9.46;100.00;100848.36;3461030;84;34930;-89
2022/11/02 03:31:33;;;;;;;14.35;8.73;;;;;;;9.39;100.00;100853.11;3465802;84;33860;-89
2022/11/02 03:36:39;;;;;;;15.43;8.45;;;;;;;9.35;100.00;100848.13;3456390;84;99013;-90
2022/11/02 03:41:43;;;;;;;16.30;9.03;;;;;;;9.31;100.00;100856.86;3459219;85;26852;-90
2022/11/02 03:46:46;;;;;;;17.62;9.68;;;;;;;9.30;100.00;100855.84;3458828;84;99023;-91
2022/11/02 03:51:49;;;;;;;28.47;14.20;;;;;;;9.30;100.00;100864.89;3463079;84;35439;-91
2022/11/02 03:56:56;;;;;;;31.05;13.25;;;;;;;9.33;100.00;100864.75;3457123;84;99039;-90
2022/11/02 04:01:58;;;;;;;31.50;15.50;;;;;;;9.34;100.00;100880.88;3460799;85;26485;-91
2022/11/02 04:06:59;;;;;;;59.05;18.73;;;;;;;9.38;100.00;100870.75;3453082;83;98936;-90
2022/11/02 04:28:07;;;;;;;30.40;16.27;;;;;;;9.66;100.00;100896.11;3495868;84;98886;-91
2022/11/02 04:38:41;;;;;;;36.65;17.67;;;;;;;9.82;100.00;100891.35;3499183;83;98723;-92
2022/11/02 04:43:43;;;;;;;32.17;16.37;;;;;;;9.89;100.00;100890.72;3502097;84;34886;-92
2022/11/02 04:48:44;;;;;;;26.90;15.80;;;;;;;9.95;100.00;100876.89;3502856;82;98766;-91
2022/11/02 04:53:44;;;;;;;23.93;15.27;;;;;;;9.99;100.00;100879.95;3507271;83;25842;-92
2022/11/02 04:58:52;;;;;;;28.43;15.20;;;;;;;10.05;100.00;100873.03;3504535;83;98965;-91
2022/11/02 05:03:54;;;;;;;27.58;16.37;;;;;;;10.08;100.00;100870.92;3506858;83;35675;-91
2022/11/02 05:08:55;;;;;;;57.80;16.85;;;;;;;10.13;100.00;100871.20;3498413;83;99608;-89
2022/11/02 05:13:56;;;;;;;24.80;16.40;;;;;;;10.16;100.00;100876.80;3508191;82;26541;-90
2022/11/02 05:18:57;;;;;;;44.53;17.03;;;;;;;10.20;100.00;100876.86;3499865;83;99397;-91
2022/11/02 05:23:57;;;;;;;48.17;18.50;;;;;;;10.21;100.00;100877.87;3509527;82;32530;-91
2022/11/02 05:28:58;;;;;;;53.60;19.13;;;;;;;10.23;100.00;100879.67;3506947;82;99596;-92
2022/11/02 05:33:59;;;;;;;37.40;17.47;;;;;;;10.24;100.00;100886.77;3518358;82;32482;-91
2022/11/02 05:39:00;;;;;;;44.20;18.20;;;;;;;10.25;100.00;100894.45;3510941;82;99168;-92
2022/11/02 05:44:00;;;;;;;41.63;18.50;;;;;;;10.27;100.00;100903.12;3515803;82;27430;-90
2022/11/02 05:49:01;;;;;;;39.60;20.07;;;;;;;10.28;100.00;100902.77;3507341;82;99147;-90
2022/11/02 05:54:02;;;;;;;37.07;21.50;;;;;;;10.32;100.00;100898.70;3510353;82;26089;-91
2022/11/02 05:59:03;;;;;;;40.13;21.80;;;;;;;10.31;100.00;100888.27;3507600;82;99230;-90
2022/11/02 06:04:05;;;;;;;47.20;25.20;;;;;;;10.34;100.00;100886.74;3509707;82;31613;-91
2022/11/02 06:09:06;;;;;;;51.73;28.83;;;;;;;10.38;100.00;100891.17;3507568;82;99109;-93
2022/11/02 06:14:07;;;;;;;57.63;30.53;;;;;;;10.39;100.00;100901.58;3516205;82;25918;-93
2022/11/02 06:19:08;;;;;;;56.87;28.13;;;;;;;10.43;100.00;100901.08;3509420;82;99573;-93
2022/11/02 06:24:09;;;;;;;56.33;29.67;;;;;;;10.45;100.00;100908.37;3514229;82;26475;-87
2022/11/02 06:29:09;;;;;;;49.83;25.83;;;;;;;10.42;100.00;100913.25;3505698;82;99712;-88
2022/11/02 06:34:10;;;;;;;46.08;25.50;;;;;;;10.39;100.00;100913.97;3489699;82;25977;-90
2022/11/02 06:39:12;;;;;;;41.15;23.42;;;;;;;10.35;100.00;100913.90;3476920;82;99221;-90
2022/11/02 06:44:12;;;;;;;41.17;23.20;;;;;;;10.31;100.00;100924.03;3510718;82;33187;-89
2022/11/02 06:49:13;;;;;;;36.87;21.87;;;;;;;10.29;100.00;100913.17;3504817;82;99493;-90
2022/11/02 06:54:14;;;;;;;35.87;20.93;;;;;;;10.23;100.00;100920.94;3510218;82;33201;-90
2022/11/02 06:59:15;;;;;;;33.80;20.47;;;;;;;10.20;100.00;100927.15;3504373;82;99287;-90
2022/11/02 07:04:16;;;;;;;39.23;19.23;;;;;;;10.17;100.00;100939.45;3509481;82;33291;-89
2022/11/02 07:09:17;;;;;;;27.47;16.50;;;;;;;10.15;100.00;100932.16;3497447;82;99428;-89
2022/11/02 07:14:18;;;;;;;31.30;17.00;;;;;;;10.14;100.00;100934.70;3477591;83;33266;-89
2022/11/02 07:19:19;;;;;;;33.40;18.83;;;;;;;10.00;100.00;100912.36;3510595;82;99110;-89
2022/11/02 07:24:20;;;;;;;32.70;18.60;;;;;;;10.12;100.00;100936.99;3513230;82;32232;-89
2022/11/02 07:29:20;;;;;;;31.03;18.13;;;;;;;10.11;100.00;100947.22;3505708;82;99401;-89
2022/11/02 07:34:21;;;;;;;30.13;17.13;;;;;;;10.14;100.00;100942.34;3509158;82;32192;-89
2022/11/02 07:39:22;;;;;;;28.73;17.70;;;;;;;10.12;100.00;100943.87;3503446;82;99294;-89
2022/11/02 07:44:23;;;;;;;27.13;17.32;;;;;;;10.10;100.00;100941.50;3505322;82;32129;-89
2022/11/02 07:49:24;;;;;;;30.13;15.47;;;;;;;10.11;100.00;100949.97;3508198;82;99231;-90
2022/11/02 07:54:24;;;;;;;23.80;14.63;;;;;;;10.16;100.00;100942.00;3511813;82;32276;-88
2022/11/02 07:59:25;;;;;;;21.27;12.70;;;;;;;10.23;100.00;100942.14;3509455;82;99516;-87
2022/11/02 08:04:26;;;;;;;28.10;13.63;;;;;;;10.38;100.00;100935.20;3506633;82;26338;-90
2022/11/02 08:09:27;;;;;;;26.97;12.70;;;;;;;10.55;100.00;100941.63;3499473;82;99314;-90
2022/11/02 08:14:27;;;;;;;23.27;11.83;;;;;;;10.70;100.00;100938.55;3504633;84;34974;-89
2022/11/02 08:19:29;;;;;;;20.80;10.27;;;;;;;10.89;100.00;100939.88;3502270;82;99305;-90
2022/11/02 08:24:30;;;;;;;21.57;10.33;;;;;;;11.10;100.00;100936.11;3507652;82;26448;-90
2022/11/02 08:29:31;;;;;;;19.97;10.00;;;;;;;11.32;100.00;100931.97;3480008;83;99263;-89
2022/11/02 08:34:31;;;;;;;20.10;10.13;;;;;;;11.64;100.00;100939.38;3480247;83;35357;-90
2022/11/02 08:39:32;;;;;;;19.93;8.40;;;;;;;12.00;100.00;100935.36;3496285;83;99321;-91
2022/11/02 08:44:33;;;;;;;16.25;6.65;;;;;;;12.35;100.00;100933.06;3501920;83;35846;-91
2022/11/02 08:49:33;;;;;;;16.63;6.47;;;;;;;12.85;100.00;100932.99;3496189;83;99218;-91
2022/11/02 08:54:34;;;;;;;15.33;6.53;;;;;;;13.31;100.00;100926.73;3499274;83;32513;-92
2022/11/02 08:59:35;;;;;;;12.60;5.70;;;;;;;13.76;100.00;100920.75;3496842;83;99277;-91
2022/11/02 09:04:36;;;;;;;13.63;6.47;;;;;;;14.17;100.00;100911.06;3500728;83;27295;-92
2022/11/02 09:09:37;;;;;;;12.73;4.30;;;;;;;14.45;100.00;100918.11;3497182;83;99153;-94
2022/11/02 09:14:37;;;;;;;16.77;5.20;;;;;;;14.85;100.00;100914.25;3497248;83;26472;-92
2022/11/02 09:19:38;;;;;;;11.77;3.70;;;;;;;15.11;100.00;100924.97;3491996;83;99024;-90
2022/11/02 09:24:39;;;;;;;13.40;4.70;;;;;;;15.39;100.00;100917.48;3502268;83;32532;-92
2022/11/02 09:29:40;;;;;;;18.90;4.60;;;;;;;15.92;100.00;100920.16;3487473;83;98765;-93
2022/11/02 09:34:40;;;;;;;12.80;3.83;;;;;;;16.28;100.00;100911.30;3478400;83;32206;-90
2022/11/02 09:39:41;;;;;;;9.50;3.08;;;;;;;16.39;100.00;100914.85;3506596;82;99122;-93
2022/11/02 09:45:01;;;;;;;12.37;3.50;;;;;;;16.52;97.86;100908.24;3513547;82;28745;-91
2022/11/02 09:50:03;;;;;;;9.93;2.90;;;;;;;16.56;93.46;100904.23;3501297;82;99037;-90
2022/11/02 09:55:15;;;;;;;11.48;2.85;;;;;;;16.48;93.56;100899.93;3507201;82;32503;-88
2022/11/02 10:00:17;;;;;;;12.10;3.33;;;;;;;16.53;90.85;100902.28;3500612;82;98973;-89
2022/11/02 10:05:46;;;;;;;9.40;3.10;;;;;;;16.40;89.30;100901.15;3508413;82;33086;-87
2022/11/02 10:10:58;;;;;;;14.75;3.42;;;;;;;16.29;87.29;100889.27;3504941;82;98814;-89
2022/11/02 10:16:16;;;;;;;13.30;2.72;;;;;;;16.15;87.05;100895.48;3505664;83;32511;-88
2022/11/02 10:21:22;;;;;;;9.90;3.25;;;;;;;16.05;87.40;100898.51;3495688;83;32494;-87
2022/11/02 10:26:35;;;;;;;12.35;2.92;;;;;;;16.08;86.26;100908.80;3501501;82;98939;-86
2022/11/02 10:31:36;;;;;;;12.13;2.75;;;;;;;16.06;86.88;100903.44;3507772;83;33085;-87
2022/11/02 10:37:09;;;;;;;11.40;2.95;;;;;;;15.95;85.79;100906.85;3491614;83;99114;-88
2022/11/02 10:42:36;;;;;;;12.35;3.40;;;;;;;15.83;85.73;100894.80;3499962;83;32398;-87
2022/11/02 10:47:45;;;;;;;11.15;3.70;;;;;;;15.74;85.72;100902.75;3492780;83;99117;-87
2022/11/02 10:52:46;;;;;;;11.03;3.42;;;;;;;15.67;86.28;100899.41;3501503;83;32972;-87
2022/11/02 10:57:50;;;;;;;14.73;3.33;;;;;;;15.60;85.52;100895.23;3489077;83;99178;-86
2022/11/02 11:03:11;;;;;;;13.10;3.42;;;;;;;15.62;86.49;100890.69;3502759;83;32333;-89
2022/11/02 11:08:32;;;;;;;7.42;2.58;;;;;;;15.55;85.63;100891.52;3469150;83;99157;-89
2022/11/02 11:13:33;;;;;;;10.75;2.72;;;;;;;15.44;85.61;100878.84;3496887;83;32801;-88
2022/11/02 11:18:35;;;;;;;13.35;3.25;;;;;;;15.44;85.90;100868.55;3496107;83;99158;-89
2022/11/02 11:23:36;;;;;;;14.38;2.92;;;;;;;15.34;83.91;100874.89;3497914;83;32501;-84
2022/11/02 11:28:41;;;;;;;11.70;2.70;;;;;;;15.27;84.21;100875.46;3496809;83;99092;-87
2022/11/02 11:33:55;;;;;;;11.30;2.80;;;;;;;15.22;84.71;100869.73;3511590;82;27399;-87
2022/11/02 11:39:00;;;;;;;11.28;3.02;;;;;;;15.17;84.21;100875.67;3501187;82;99050;-86
2022/11/02 11:44:02;;;;;;;14.70;3.00;;;;;;;15.12;84.02;100873.30;3514696;82;27383;-85
2022/11/02 11:49:04;;;;;;;12.03;3.02;;;;;;;15.10;83.86;100869.34;3485617;82;98959;-85
2022/11/02 11:54:29;;;;;;;12.50;2.70;;;;;;;15.12;84.16;100857.24;3508310;82;32488;-87
2022/11/02 11:59:50;;;;;;;12.35;3.52;;;;;;;15.09;84.05;100856.06;3511009;82;98830;-87
2022/11/02 12:05:02;;;;;;;7.78;2.20;;;;;;;15.07;83.77;100861.22;3510390;82;33538;-86
2022/11/02 12:10:29;;;;;;;12.75;2.35;;;;;;;15.07;83.74;100858.44;3508310;82;98739;-86
2022/11/02 12:15:50;;;;;;;8.88;2.15;;;;;;;15.10;84.52;100863.79;3512510;82;33033;-87
2022/11/02 12:21:22;;;;;;;9.25;2.42;;;;;;;15.11;84.02;100852.89;3505595;82;98800;-87
2022/11/02 12:26:46;;;;;;;12.45;2.55;;;;;;;15.13;84.26;100853.27;3503695;82;98735;-90
2022/11/02 12:32:04;;;;;;;12.40;2.20;;;;;;;15.14;84.25;100863.17;3498726;83;33135;-87
2022/11/02 12:37:17;;;;;;;17.42;3.67;;;;;;;15.16;84.13;100869.12;3462254;83;99414;-87
2022/11/02 12:42:38;;;;;;;12.37;2.62;;;;;;;15.11;83.59;100866.76;3503080;83;32376;-86
2022/11/02 12:47:56;;;;;;;10.32;2.58;;;;;;;15.05;84.24;100873.27;3499659;83;99303;-88
2022/11/02 12:53:33;;;;;;;11.73;2.87;;;;;;;15.02;84.57;100868.54;3498708;83;32517;-86
2022/11/02 12:58:38;;;;;;;11.10;3.00;;;;;;;15.05;84.88;100864.19;3488063;83;99210;-87
2022/11/02 13:04:03;;;;;;;11.05;2.27;;;;;;;15.04;85.08;100864.00;3505179;83;32908;-86
2022/11/02 13:09:10;;;;;;;5.77;1.77;;;;;;;15.03;84.42;100869.31;3495671;83;99415;-85
2022/11/02 13:14:18;;;;;;;7.35;1.87;;;;;;;15.02;84.86;100879.62;3497104;83;33475;-88
2022/11/02 13:19:25;;;;;;;7.75;2.00;;;;;;;15.07;85.69;100878.43;3496545;83;99187;-90
2022/11/02 13:24:39;;;;;;;12.75;3.12;;;;;;;15.09;84.88;100883.78;3496001;83;33127;-90
2022/11/02 13:29:47;;;;;;;8.05;2.15;;;;;;;15.10;84.71;100881.81;3492855;83;98935;-89
2022/11/02 13:34:51;;;;;;;8.73;2.40;;;;;;;15.10;84.87;100875.66;3506169;83;33618;-88
2022/11/02 13:40:04;;;;;;;15.53;2.37;;;;;;;15.13;84.59;100883.19;3497965;82;98783;-87
2022/11/02 13:45:32;;;;;;;12.47;2.95;;;;;;;15.11;84.23;100890.32;3504737;83;32338;-87
2022/11/02 13:50:38;;;;;;;8.58;2.02;;;;;;;15.03;83.77;100885.36;3500159;83;98584;-86
2022/11/02 13:55:54;;;;;;;6.67;1.98;;;;;;;14.99;84.29;100894.87;3475378;83;27455;-87
2022/11/02 14:01:03;;;;;;;9.53;2.02;;;;;;;14.92;83.53;100901.20;3495799;83;98568;-86
2022/11/02 14:06:11;;;;;;;12.18;2.10;;;;;;;14.87;83.78;100903.58;3504730;83;33104;-87
2022/11/02 14:11:17;;;;;;;6.55;2.10;;;;;;;14.81;84.25;100899.59;3501434;83;33129;-86
2022/11/02 14:16:46;;;;;;;8.15;2.55;;;;;;;14.79;84.45;100906.94;3491474;84;98883;-88
2022/11/02 14:22:04;;;;;;;5.80;1.87;;;;;;;14.77;84.67;100900.98;3485921;83;32548;-87
2022/11/02 14:27:18;;;;;;;7.35;2.42;;;;;;;14.73;84.51;100898.01;3492003;83;98549;-89
2022/11/02 14:32:33;;;;;;;9.55;2.42;;;;;;;14.65;84.35;100906.09;3509462;82;33458;-88
2022/11/02 14:38:24;;;;;;;11.63;2.65;;;;;;;14.60;84.91;100912.81;3509519;82;98953;-88
2022/11/02 14:44:00;;;;;;;9.00;2.62;;;;;;;14.54;84.74;100910.23;3518401;82;32455;-89
2022/11/02 14:49:03;;;;;;;8.60;2.40;;;;;;;14.48;85.18;100912.38;3511751;82;98836;-88
2022/11/02 14:54:14;;;;;;;13.40;2.47;;;;;;;14.39;85.64;100915.52;3523774;82;32522;-88
2022/11/02 14:59:21;;;;;;;10.23;2.58;;;;;;;14.35;85.90;100911.97;3513873;82;99173;-87
2022/11/02 15:04:24;;;;;;;15.15;6.12;;;;;;;14.23;85.77;100912.30;3518398;82;32192;-89
2022/11/02 15:09:58;;;;;;;15.20;4.22;;;;;;;14.17;86.64;100921.36;3518057;82;99348;-86
2022/11/02 15:15:25;;;;;;;15.83;3.02;;;;;;;14.05;86.57;100919.70;3519032;82;32432;-88
2022/11/02 15:20:30;;;;;;;9.40;3.05;;;;;;;13.91;86.11;100927.16;3509586;82;98727;-87
2022/11/02 15:25:36;;;;;;;9.23;2.63;;;;;;;13.81;86.60;100938.94;3522766;82;27401;-87
2022/11/02 15:30:54;;;;;;;7.83;2.70;;;;;;;13.67;86.24;100940.23;3513494;82;98791;-90
2022/11/02 15:35:56;;;;;;;11.20;2.50;;;;;;;13.50;86.81;100948.62;3519519;82;32893;-88
2022/11/02 15:41:07;;;;;;;10.23;2.90;;;;;;;13.28;87.17;100924.75;3488969;82;98685;-89
2022/11/02 15:46:52;;;;;;;9.85;2.92;;;;;;;13.22;87.76;100952.54;3523479;82;32717;-91
2022/11/02 15:52:32;;;;;;;10.15;3.80;;;;;;;12.97;87.23;100927.25;3521361;82;32814;-90
2022/11/02 15:57:47;;;;;;;11.10;3.55;;;;;;;12.96;88.12;100950.50;3517347;82;98688;-90
2022/11/02 16:02:51;;;;;;;9.70;4.37;;;;;;;12.71;88.47;100935.63;3527066;82;26854;-91
2022/11/02 16:07:56;;;;;;;10.00;4.22;;;;;;;12.68;88.94;100957.89;3496402;83;98726;-91
2022/11/02 16:13:11;;;;;;;12.17;4.90;;;;;;;12.57;89.71;100969.98;3496955;83;28188;-92
2022/11/02 16:18:28;;;;;;;9.40;4.03;;;;;;;12.46;90.22;100976.77;3453012;84;99268;-92
2022/11/02 16:23:39;;;;;;;10.78;3.83;;;;;;;12.34;91.09;100985.30;3523805;82;27607;-91
2022/11/02 16:28:39;;;;;;;12.30;4.47;;;;;;;12.25;91.60;100982.59;3518647;82;99058;-92
2022/11/02 16:33:46;;;;;;;11.00;3.93;;;;;;;12.25;91.60;100982.59;3523638;82;27744;-91
2022/11/02 16:38:58;;;;;;;8.60;3.80;;;;;;;12.20;92.50;100985.10;3512364;82;99140;-92
2022/11/02 16:44:12;;;;;;;8.93;3.58;;;;;;;12.14;92.85;100989.36;3520389;82;33508;-92
2022/11/02 16:49:22;;;;;;;12.90;5.00;;;;;;;12.14;92.85;100989.36;3495831;83;99016;-92
2022/11/02 16:54:31;;;;;;;12.37;6.30;;;;;;;12.14;93.17;101000.97;3494046;84;33718;-91
2022/11/02 16:59:35;;;;;;;14.10;6.03;;;;;;;12.12;93.13;101011.59;3493681;83;98678;-91
2022/11/02 17:04:40;;;;;;;17.50;9.35;;;;;;;12.06;92.56;101026.31;3500105;83;33678;-90
2022/11/02 17:09:41;;;;;;;17.82;7.90;;;;;;;12.03;93.51;101028.42;3441924;84;99029;-90
2022/11/02 17:14:46;;;;;;;15.43;6.03;;;;;;;12.01;92.77;101042.38;3520422;82;28684;-91
2022/11/02 17:20:14;;;;;;;16.57;5.50;;;;;;;11.96;92.48;101044.88;3513108;82;98559;-91
2022/11/02 17:25:29;;;;;;;14.73;5.72;;;;;;;11.93;92.64;101053.88;3516684;82;31267;-91
2022/11/02 17:30:38;;;;;;;14.85;6.50;;;;;;;11.92;92.64;101052.30;3514141;82;98827;-91
2022/11/02 17:35:46;;;;;;;16.73;5.70;;;;;;;11.91;92.43;101062.31;3492768;82;32478;-88
2022/11/02 17:40:51;;;;;;;14.50;5.17;;;;;;;11.90;92.23;101054.64;3487073;82;98641;-91
2022/11/02 17:45:58;;;;;;;16.42;4.83;;;;;;;11.90;92.00;101057.97;3490688;83;32747;-88
2022/11/02 17:50:59;;;;;;;21.82;6.85;;;;;;;11.89;91.94;101053.63;3486759;83;98907;-91
2022/11/02 17:56:00;;;;;;;15.17;5.00;;;;;;;11.86;91.99;101052.97;3494281;83;26689;-93
2022/11/02 18:01:03;;;;;;;14.00;4.53;;;;;;;11.80;92.14;101046.99;3485367;83;98651;-93
2022/11/02 18:06:04;;;;;;;13.43;4.75;;;;;;;11.73;92.20;101046.86;3490626;83;32459;-92
2022/11/02 18:11:05;;;;;;;14.93;4.67;;;;;;;11.65;91.65;101044.35;3480738;83;98504;-91
2022/11/02 18:16:06;;;;;;;13.07;4.40;;;;;;;11.57;91.65;101026.89;3465149;83;26690;-93
2022/11/02 18:21:11;;;;;;;18.27;7.13;;;;;;;11.49;91.85;101025.73;3483204;83;98548;-91
2022/11/02 18:26:12;;;;;;;19.82;8.60;;;;;;;11.44;93.19;101029.61;3480654;83;99051;-93
2022/11/02 18:31:13;;;;;;;16.73;7.87;;;;;;;11.39;93.89;101033.27;3484604;83;26747;-93
2022/11/02 18:36:13;;;;;;;20.37;9.30;;;;;;;11.31;94.66;101031.53;3467391;83;98988;-92
2022/11/02 18:41:28;;;;;;;24.43;8.60;;;;;;;11.23;95.62;101036.72;3479626;84;25847;-93
2022/11/02 18:46:31;;;;;;;22.67;10.18;;;;;;;11.16;96.03;101042.89;3405999;85;99476;-93
2022/11/02 18:51:32;;;;;;;20.62;8.70;;;;;;;11.06;96.21;101036.60;3413168;85;32574;-93
2022/11/02 18:56:33;;;;;;;20.82;10.40;;;;;;;10.93;95.21;101041.26;3405825;85;98847;-92
2022/11/02 19:01:34;;;;;;;15.47;7.13;;;;;;;10.84;96.50;101053.87;3408634;85;25873;-93
2022/11/02 19:12:13;;;;;;;22.37;9.00;;;;;;;10.57;95.42;101063.16;3417693;86;32591;-92
2022/11/02 19:17:14;;;;;;;17.12;7.20;;;;;;;10.46;95.55;101063.50;3407455;84;99257;-92
2022/11/02 19:22:21;;;;;;;26.07;11.50;;;;;;;10.36;96.63;101066.03;3414306;85;26443;-91
2022/11/02 19:27:24;;;;;;;29.47;15.07;;;;;;;10.32;97.39;101081.66;3397067;84;99220;-94
2022/11/02 19:32:24;;;;;;;27.15;11.53;;;;;;;10.20;97.46;101088.07;3468224;84;31669;-94
2022/11/02 19:37:25;;;;;;;20.63;9.57;;;;;;;10.10;97.38;101093.34;3524940;81;99134;-92
2022/11/02 19:42:26;;;;;;;22.27;8.00;;;;;;;10.01;97.45;101096.81;3522120;82;25974;-93
2022/11/02 19:47:27;;;;;;;24.18;10.18;;;;;;;9.93;97.50;101100.56;3515512;82;98691;-93
2022/11/02 19:52:28;;;;;;;19.33;8.30;;;;;;;9.83;97.33;101107.97;3523066;82;25977;-92
2022/11/02 19:57:29;;;;;;;18.33;9.73;;;;;;;9.75;97.10;101108.36;3518577;82;98690;-93
2022/11/02 20:02:29;;;;;;;21.37;11.67;;;;;;;9.74;98.39;101111.46;3523410;82;26227;-94
2022/11/02 20:07:30;;;;;;;22.42;12.30;;;;;;;9.73;98.71;101127.73;3518163;82;99115;-92
2022/11/02 20:12:33;;;;;;;23.43;10.73;;;;;;;9.70;98.98;101123.74;3501792;83;33254;-94
2022/11/02 20:17:34;;;;;;;21.27;11.73;;;;;;;9.67;99.69;101114.84;3491009;83;98948;-93
2022/11/02 20:22:37;;;;;;;21.90;12.63;;;;;;;9.65;100.00;101135.59;3501727;83;33314;-93
2022/11/02 20:27:39;;;;;;;20.97;11.37;;;;;;;9.65;100.00;101135.59;3394415;85;99063;-92
2022/11/02 20:32:40;;;;;;;22.67;11.60;;;;;;;9.62;100.00;101141.78;3495316;82;25999;-93
2022/11/02 20:37:41;;;;;;;26.12;11.03;;;;;;;9.61;100.00;101138.81;3475229;82;99193;-93
2022/11/02 20:42:42;;;;;;;20.10;10.07;;;;;;;9.59;100.00;101139.16;3478541;84;33762;-93
2022/11/02 20:47:43;;;;;;;21.97;11.20;;;;;;;9.54;100.00;101146.88;3354016;86;99279;-92
2022/11/02 20:52:45;;;;;;;20.40;11.10;;;;;;;9.50;100.00;101148.73;3405089;85;33293;-93
2022/11/02 20:57:47;;;;;;;20.93;10.80;;;;;;;9.46;100.00;101153.32;3396477;85;99091;-93
2022/11/02 21:02:48;;;;;;;22.07;12.20;;;;;;;9.41;100.00;101159.07;3404952;85;33269;-92
2022/11/02 21:07:50;;;;;;;27.20;12.47;;;;;;;9.33;100.00;101163.57;3396327;85;99050;-91
2022/11/02 21:18:11;;;;;;;23.27;10.87;;;;;;;9.18;100.00;101171.77;3399975;85;99112;-93
2022/11/02 21:23:11;;;;;;;19.93;9.37;;;;;;;9.11;100.00;101170.20;3407764;85;33295;-92
2022/11/02 21:28:12;;;;;;;20.40;9.50;;;;;;;9.05;100.00;101173.76;3395436;85;99128;-92
2022/11/02 21:33:13;;;;;;;18.37;8.27;;;;;;;9.00;100.00;101182.23;3406389;85;33197;-92
2022/11/02 21:38:13;;;;;;;19.23;8.90;;;;;;;8.95;100.00;101178.36;3440091;84;99286;-92
2022/11/02 21:43:15;;;;;;;21.07;12.00;;;;;;;8.92;100.00;101187.88;3518923;82;33434;-92
2022/11/02 21:48:15;;;;;;;23.50;14.60;;;;;;;8.86;100.00;101176.91;3506300;82;99066;-92
2022/11/02 21:53:16;;;;;;;23.98;12.33;;;;;;;8.80;100.00;101180.48;3512622;82;33221;-93
2022/11/02 21:58:17;;;;;;;20.13;10.27;;;;;;;8.75;100.00;101172.48;3505604;82;99104;-91
2022/11/02 22:03:18;;;;;;;18.43;10.27;;;;;;;8.71;100.00;101176.25;3513502;82;31628;-92
2022/11/02 22:13:34;;;;;;;22.37;9.93;;;;;;;8.60;100.00;101178.69;3463421;82;34283;-94
2022/11/02 22:18:35;;;;;;;20.60;9.43;;;;;;;8.51;100.00;101185.45;3500339;82;98573;-94
2022/11/02 22:23:36;;;;;;;17.20;8.87;;;;;;;8.44;100.00;101187.39;3507035;83;32190;-95
2022/11/02 22:28:40;;;;;;;19.23;9.03;;;;;;;8.39;100.00;101190.36;3499677;82;99145;-94
2022/11/02 22:33:45;;;;;;;18.45;8.35;;;;;;;8.35;100.00;101191.41;3512766;83;33228;-93
2022/11/02 22:38:52;;;;;;;18.45;8.00;;;;;;;8.33;100.00;101197.78;3503646;82;98963;-92
2022/11/02 22:44:02;;;;;;;19.40;8.63;;;;;;;8.27;100.00;101190.92;3446100;84;32961;-93
2022/11/02 22:49:04;;;;;;;17.10;8.97;;;;;;;8.22;100.00;101191.97;3500973;82;98914;-92
2022/11/02 22:54:09;;;;;;;23.15;10.00;;;;;;;8.16;100.00;101192.50;3509509;82;33291;-92
2022/11/02 22:59:10;;;;;;;18.63;9.53;;;;;;;8.08;100.00;101193.42;3504614;82;98897;-93
2022/11/02 23:04:12;;;;;;;25.35;10.00;;;;;;;8.01;100.00;101193.19;3506099;83;33012;-94
2022/11/02 23:09:12;;;;;;;22.67;11.30;;;;;;;7.98;100.00;101209.75;3498370;83;99068;-93
2022/11/02 23:14:15;;;;;;;27.25;10.35;;;;;;;7.93;100.00;101201.74;3505714;84;31654;-93
2022/11/02 23:19:28;;;;;;;22.33;11.30;;;;;;;7.88;100.00;101202.52;3497892;83;98882;-93
2022/11/02 23:40:23;;;;;;;20.33;9.73;;;;;;;7.65;100.00;101218.58;3511458;82;98570;-94
2022/11/02 23:45:24;;;;;;;20.13;10.07;;;;;;;7.59;100.00;101224.02;3505606;82;31646;-94
